sensor_id;sensor_type;location;lat;lon;timestamp;temperature;humidity
16178;DHT22;8195;51.220;9.746;2023-02-28T00:02:43;-0.90;97.20
16178;DHT22;8195;51.220;9.746;2023-02-28T00:12:44;-0.90;97.20
16178;DHT22;8195;51.220;9.746;2023-02-28T00:22:47;-1.00;97.20
16178;DHT22;8195;51.220;9.746;2023-02-28T00:32:49;-1.20;97.20
16178;DHT22;8195;51.220;9.746;2023-02-28T00:42:50;-1.20;97.20
16178;DHT22;8195;51.220;9.746;2023-02-28T00:52:50;-1.20;97.20
16178;DHT22;8195;51.220;9.746;2023-02-28T01:02:51;-1.20;97.20
16178;DHT22;8195;51.220;9.746;2023-02-28T01:12:51;-1.20;97.20
16178;DHT22;8195;51.220;9.746;2023-02-28T01:22:52;-1.20;97.20
16178;DHT22;8195;51.220;9.746;2023-02-28T01:32:52;-1.20;97.20
16178;DHT22;8195;51.220;9.746;2023-02-28T01:42:53;-1.20;97.20
16178;DHT22;8195;51.220;9.746;2023-02-28T01:52:57;-1.10;97.20
16178;DHT22;8195;51.220;9.746;2023-02-28T02:03:07;-1.10;97.20
16178;DHT22;8195;51.220;9.746;2023-02-28T02:44:13;-1.10;97.20
16178;DHT22;8195;51.220;9.746;2023-02-28T02:54:21;-1.10;97.20
16178;DHT22;8195;51.220;9.746;2023-02-28T03:04:25;-1.10;97.20
16178;DHT22;8195;51.220;9.746;2023-02-28T03:14:44;-1.10;97.20
16178;DHT22;8195;51.220;9.746;2023-02-28T03:35:06;-1.10;97.20
16178;DHT22;8195;51.220;9.746;2023-02-28T03:45:20;-1.10;97.20
16178;DHT22;8195;51.220;9.746;2023-02-28T03:55:22;-1.10;97.20
16178;DHT22;8195;51.220;9.746;2023-02-28T04:05:23;-1.20;97.20
16178;DHT22;8195;51.220;9.746;2023-02-28T04:15:24;-1.30;97.20
16178;DHT22;8195;51.220;9.746;2023-02-28T04:25:24;-1.40;97.20
16178;DHT22;8195;51.220;9.746;2023-02-28T04:35:25;-1.50;97.20
16178;DHT22;8195;51.220;9.746;2023-02-28T04:45:26;-1.40;97.20
16178;DHT22;8195;51.220;9.746;2023-02-28T04:55:27;-1.40;97.20
16178;DHT22;8195;51.220;9.746;2023-02-28T05:05:27;-1.40;97.20
16178;DHT22;8195;51.220;9.746;2023-02-28T05:15:28;-1.40;97.20
16178;DHT22;8195;51.220;9.746;2023-02-28T05:25:28;-1.40;97.20
16178;DHT22;8195;51.220;9.746;2023-02-28T05:35:29;-1.50;97.20
16178;DHT22;8195;51.220;9.746;2023-02-28T05:45:30;-1.50;97.20
16178;DHT22;8195;51.220;9.746;2023-02-28T05:55:30;-1.50;97.20
16178;DHT22;8195;51.220;9.746;2023-02-28T06:05:31;-1.50;97.20
16178;DHT22;8195;51.220;9.746;2023-02-28T06:15:32;-1.60;97.20
16178;DHT22;8195;51.220;9.746;2023-02-28T06:25:32;-1.60;97.20
16178;DHT22;8195;51.220;9.746;2023-02-28T06:35:33;-1.60;97.20
16178;DHT22;8195;51.220;9.746;2023-02-28T06:45:33;-1.60;97.20
16178;DHT22;8195;51.220;9.746;2023-02-28T06:55:34;-1.40;97.20
16178;DHT22;8195;51.220;9.746;2023-02-28T07:05:35;-1.30;97.20
16178;DHT22;8195;51.220;9.746;2023-02-28T07:15:37;-1.10;97.20
16178;DHT22;8195;51.220;9.746;2023-02-28T07:25:38;-1.10;97.20
16178;DHT22;8195;51.220;9.746;2023-02-28T07:35:38;-0.60;97.20
16178;DHT22;8195;51.220;9.746;2023-02-28T07:45:39;-0.10;97.20
16178;DHT22;8195;51.220;9.746;2023-02-28T07:55:39;0.30;97.20
16178;DHT22;8195;51.220;9.746;2023-02-28T08:05:40;0.70;97.20
16178;DHT22;8195;51.220;9.746;2023-02-28T08:15:41;1.60;97.20
16178;DHT22;8195;51.220;9.746;2023-02-28T08:25:42;4.90;97.20
16178;DHT22;8195;51.220;9.746;2023-02-28T08:35:42;4.20;97.20
16178;DHT22;8195;51.220;9.746;2023-02-28T08:45:43;7.70;92.40
16178;DHT22;8195;51.220;9.746;2023-02-28T08:55:44;8.60;87.60
16178;DHT22;8195;51.220;9.746;2023-02-28T09:05:59;6.60;88.60
16178;DHT22;8195;51.220;9.746;2023-02-28T09:16:02;5.30;94.20
16178;DHT22;8195;51.220;9.746;2023-02-28T09:26:03;3.50;95.50
16178;DHT22;8195;51.220;9.746;2023-02-28T09:36:04;5.00;96.70
16178;DHT22;8195;51.220;9.746;2023-02-28T09:56:39;5.10;93.90
16178;DHT22;8195;51.220;9.746;2023-02-28T10:06:49;3.40;97.20
16178;DHT22;8195;51.220;9.746;2023-02-28T10:16:54;2.50;97.20
16178;DHT22;8195;51.220;9.746;2023-02-28T10:27:01;5.80;95.00
16178;DHT22;8195;51.220;9.746;2023-02-28T10:37:04;8.00;89.40
16178;DHT22;8195;51.220;9.746;2023-02-28T10:47:08;8.50;86.80
16178;DHT22;8195;51.220;9.746;2023-02-28T10:57:19;8.30;86.10
16178;DHT22;8195;51.220;9.746;2023-02-28T11:07:22;7.20;89.80
16178;DHT22;8195;51.220;9.746;2023-02-28T11:17:28;6.20;89.50
16178;DHT22;8195;51.220;9.746;2023-02-28T11:37:31;5.90;90.30
16178;DHT22;8195;51.220;9.746;2023-02-28T11:48:01;4.60;93.10
16178;DHT22;8195;51.220;9.746;2023-02-28T11:58:14;4.10;95.70
16178;DHT22;8195;51.220;9.746;2023-02-28T12:18:44;3.40;97.20
16178;DHT22;8195;51.220;9.746;2023-02-28T12:28:52;3.10;97.20
16178;DHT22;8195;51.220;9.746;2023-02-28T12:48:57;2.80;97.20
16178;DHT22;8195;51.220;9.746;2023-02-28T12:59:37;2.70;97.20
16178;DHT22;8195;51.220;9.746;2023-02-28T13:09:40;2.50;97.20
16178;DHT22;8195;51.220;9.746;2023-02-28T13:19:44;2.60;97.20
16178;DHT22;8195;51.220;9.746;2023-02-28T13:29:46;2.50;97.20
16178;DHT22;8195;51.220;9.746;2023-02-28T13:40:36;2.40;97.20
16178;DHT22;8195;51.220;9.746;2023-02-28T13:50:26;2.50;97.20
16178;DHT22;8195;51.220;9.746;2023-02-28T14:00:45;2.30;97.20
16178;DHT22;8195;51.220;9.746;2023-02-28T14:11:02;2.30;97.20
16178;DHT22;8195;51.220;9.746;2023-02-28T14:21:32;2.30;97.20
16178;DHT22;8195;51.220;9.746;2023-02-28T14:31:37;2.20;97.20
16178;DHT22;8195;51.220;9.746;2023-02-28T14:41:40;2.10;97.20
16178;DHT22;8195;51.220;9.746;2023-02-28T14:51:42;2.00;97.20
16178;DHT22;8195;51.220;9.746;2023-02-28T15:01:42;2.00;97.20
16178;DHT22;8195;51.220;9.746;2023-02-28T15:11:46;2.00;97.20
16178;DHT22;8195;51.220;9.746;2023-02-28T15:21:50;1.90;97.20
16178;DHT22;8195;51.220;9.746;2023-02-28T15:31:56;1.80;97.20
16178;DHT22;8195;51.220;9.746;2023-02-28T15:42:10;1.80;97.20
16178;DHT22;8195;51.220;9.746;2023-02-28T15:53:00;1.80;97.20
16178;DHT22;8195;51.220;9.746;2023-02-28T16:02:41;1.70;97.20
16178;DHT22;8195;51.220;9.746;2023-02-28T16:12:42;1.50;97.20
16178;DHT22;8195;51.220;9.746;2023-02-28T16:22:43;1.50;97.20
16178;DHT22;8195;51.220;9.746;2023-02-28T16:32:43;1.40;97.20
16178;DHT22;8195;51.220;9.746;2023-02-28T16:42:45;1.30;97.20
16178;DHT22;8195;51.220;9.746;2023-02-28T16:52:47;1.20;97.20
16178;DHT22;8195;51.220;9.746;2023-02-28T17:02:47;1.10;97.20
16178;DHT22;8195;51.220;9.746;2023-02-28T17:12:48;1.00;97.20
16178;DHT22;8195;51.220;9.746;2023-02-28T17:22:50;0.90;97.20
16178;DHT22;8195;51.220;9.746;2023-02-28T17:32:50;0.80;97.20
16178;DHT22;8195;51.220;9.746;2023-02-28T17:42:51;0.70;97.20
16178;DHT22;8195;51.220;9.746;2023-02-28T17:52:52;0.50;97.20
16178;DHT22;8195;51.220;9.746;2023-02-28T18:02:52;0.20;97.20
16178;DHT22;8195;51.220;9.746;2023-02-28T18:12:53;0.00;97.20
16178;DHT22;8195;51.220;9.746;2023-02-28T18:22:54;0.00;97.20
16178;DHT22;8195;51.220;9.746;2023-02-28T18:32:54;-0.10;97.20
16178;DHT22;8195;51.220;9.746;2023-02-28T18:42:55;-0.10;97.20
16178;DHT22;8195;51.220;9.746;2023-02-28T18:52:56;-0.20;97.20
16178;DHT22;8195;51.220;9.746;2023-02-28T19:02:56;-0.20;97.20
16178;DHT22;8195;51.220;9.746;2023-02-28T19:12:57;-0.30;97.20
16178;DHT22;8195;51.220;9.746;2023-02-28T19:22:58;-0.30;97.20
16178;DHT22;8195;51.220;9.746;2023-02-28T19:32:58;-0.40;97.20
16178;DHT22;8195;51.220;9.746;2023-02-28T19:42:59;-0.40;97.20
16178;DHT22;8195;51.220;9.746;2023-02-28T19:53:00;-0.40;97.20
16178;DHT22;8195;51.220;9.746;2023-02-28T20:03:00;-0.40;97.20
16178;DHT22;8195;51.220;9.746;2023-02-28T20:13:01;-0.40;97.20
16178;DHT22;8195;51.220;9.746;2023-02-28T20:23:03;-0.40;97.20
16178;DHT22;8195;51.220;9.746;2023-02-28T20:33:03;-0.50;97.20
16178;DHT22;8195;51.220;9.746;2023-02-28T20:43:04;-0.50;97.20
16178;DHT22;8195;51.220;9.746;2023-02-28T20:53:04;-0.60;97.20
16178;DHT22;8195;51.220;9.746;2023-02-28T21:03:05;-0.60;97.20
16178;DHT22;8195;51.220;9.746;2023-02-28T21:13:06;-0.70;97.20
16178;DHT22;8195;51.220;9.746;2023-02-28T21:23:06;-0.70;97.20
16178;DHT22;8195;51.220;9.746;2023-02-28T21:33:07;-0.70;97.20
16178;DHT22;8195;51.220;9.746;2023-02-28T21:43:08;-0.80;97.20
16178;DHT22;8195;51.220;9.746;2023-02-28T21:53:08;-0.80;97.20
